^^
Saratoga-Weather Station Historical Data
Daily Summary for February 25, 2020 Units:  Metric    English   Both
Daily Weekly Monthly Yearly Custom
  High: Low: Average:
Temperature: 14 °C 9.3 °C 11.5 °C
Dew Point: 11.2 °C 8.4 °C 9.9 °C
Humidity: 96% 76% 90%
Wind Speed: 7.9km/h 0km/h 2km/h
Wind Gust: 16.1km/h - -
Wind- - ESE
Pressure: 1010.8 hPa 1002.7 hPa -
Precipitation: 9.1 mm    
Historical Graphs
 
 
Tabular Data for February 25, 2020
Time Temperature Dew Point Pressure Wind Wind Speed Wind Gust Humidity Rainfall Rate (Hourly) solar
00:04 13.8 °C 11.1 °C 1010.8 hPa North 4.7 km/h 12.9 km/h 84% 0.0 mm 0 W/m2
00:09 13.9 °C 11.2 °C 1010.8 hPa NNW 1.4 km/h 3.2 km/h 84% 0.0 mm 0 W/m2
00:14 13.9 °C 11.1 °C 1010.8 hPa NNW 1.4 km/h 4.8 km/h 83% 0.0 mm 0 W/m2
00:19 13.9 °C 11.1 °C 1010.8 hPa ENE 6.4 km/h 16.1 km/h 83% 0.0 mm 0 W/m2
00:24 14 °C 11.2 °C 1010.8 hPa North 4.7 km/h 6.4 km/h 83% 0.0 mm 0 W/m2
00:29 14 °C 11.2 °C 1010.5 hPa NNE 1.4 km/h 16.1 km/h 83% 0.0 mm 0 W/m2
00:34 13.9 °C 11.1 °C 1010.8 hPa North 1.4 km/h 1.6 km/h 83% 0.0 mm 0 W/m2
00:40 13.8 °C 10.8 °C 1010.8 hPa Calm   6.4 km/h 82% 0.0 mm 0 W/m2
00:45 13.8 °C 10.8 °C 1010.5 hPa ENE 3.2 km/h 4.8 km/h 82% 0.0 mm 0 W/m2
00:50 13.8 °C 10.8 °C 1010.5 hPa North 7.9 km/h 8 km/h 82% 0.0 mm 0 W/m2
00:55 13.8 °C 10.8 °C 1010.8 hPa WNW 3.2 km/h 14.5 km/h 82% 0.0 mm 0 W/m2
01:00 13.9 °C 10.9 °C 1010.5 hPa NE 7.9 km/h 8 km/h 82% 0.0 mm 0 W/m2
01:05 13.8 °C 10.8 °C 1010.2 hPa NE 6.4 km/h 6.4 km/h 82% 0.0 mm 0 W/m2
01:10 13.8 °C 10.8 °C 1010.2 hPa ENE 1.4 km/h 8 km/h 82% 0.0 mm 0 W/m2
01:15 13.7 °C 10.7 °C 1010.2 hPa NE 1.4 km/h 3.2 km/h 82% 0.0 mm 0 W/m2
01:20 13.6 °C 10.8 °C 1010.2 hPa NW 4.7 km/h 4.8 km/h 83% 0.0 mm 0 W/m2
01:25 13.4 °C 10.6 °C 1010.2 hPa NE 3.2 km/h 4.8 km/h 83% 0.0 mm 0 W/m2
01:30 13.4 °C 10.6 °C 1010.2 hPa NE 7.9 km/h 9.7 km/h 83% 0.0 mm 0 W/m2
01:35 13.3 °C 10.5 °C 1010.2 hPa North 1.4 km/h 4.8 km/h 83% 0.0 mm 0 W/m2
01:40 13.2 °C 10.4 °C 1010.2 hPa Calm   9.7 km/h 83% 0.0 mm 0 W/m2
01:45 13.2 °C 10.4 °C 1009.8 hPa Calm   3.2 km/h 83% 0.0 mm 0 W/m2
01:50 13.1 °C 10.5 °C 1010.2 hPa Calm   3.2 km/h 84% 0.0 mm 0 W/m2
01:55 13 °C 10.4 °C 1009.8 hPa NE 1.4 km/h 6.4 km/h 84% 0.0 mm 0 W/m2
02:00 12.9 °C 10.3 °C 1009.8 hPa ENE 4.7 km/h 6.4 km/h 84% 0.0 mm 0 W/m2
02:05 12.8 °C 10.2 °C 1009.8 hPa NE 1.4 km/h 3.2 km/h 84% 0.0 mm 0 W/m2
02:10 12.7 °C 10.2 °C 1009.8 hPa NE 1.4 km/h 6.4 km/h 85% 0.0 mm 0 W/m2
02:15 12.7 °C 10.2 °C 1009.8 hPa Calm   6.4 km/h 85% 0.0 mm 0 W/m2
02:20 12.6 °C 10.1 °C 1009.5 hPa NW 1.4 km/h 3.2 km/h 85% 0.0 mm 0 W/m2
02:25 12.4 °C 10.1 °C 1009.5 hPa Calm   6.4 km/h 86% 0.0 mm 0 W/m2
02:30 12.3 °C 10 °C 1009.5 hPa Calm   4.8 km/h 86% 0.0 mm 0 W/m2
02:35 12.2 °C 9.9 °C 1009.5 hPa ENE 1.4 km/h 4.8 km/h 86% 0.0 mm 0 W/m2
02:40 12.1 °C 10 °C 1009.5 hPa ENE 3.2 km/h 6.4 km/h 87% 0.0 mm 0 W/m2
02:45 12 °C 9.9 °C 1009.1 hPa ENE 3.2 km/h 6.4 km/h 87% 0.0 mm 0 W/m2
02:50 11.9 °C 10 °C 1009.1 hPa NE 3.2 km/h 4.8 km/h 88% 0.0 mm 0 W/m2
02:55 11.8 °C 9.9 °C 1009.1 hPa Calm   3.2 km/h 88% 0.0 mm 0 W/m2
02:00 11.8 °C 9.9 °C 1009.1 hPa Calm   4.8 km/h 88% 0.0 mm 0 W/m2
02:05 11.8 °C 10 °C 1009.1 hPa Calm   4.8 km/h 89% 0.0 mm 0 W/m2
02:10 11.7 °C 9.9 °C 1008.8 hPa ENE 3.2 km/h 6.4 km/h 89% 0.0 mm 0 W/m2
02:15 11.7 °C 9.9 °C 1008.8 hPa NE 4.7 km/h 6.4 km/h 89% 0.0 mm 0 W/m2
02:20 11.8 °C 10 °C 1008.5 hPa ENE 3.2 km/h 4.8 km/h 89% 0.0 mm 0 W/m2
02:25 11.7 °C 9.8 °C 1008.5 hPa NE 6.4 km/h 6.4 km/h 88% 0.0 mm 0 W/m2
02:30 11.8 °C 9.9 °C 1008.5 hPa East 4.7 km/h 8 km/h 88% 0.0 mm 0 W/m2
02:35 11.7 °C 9.8 °C 1008.5 hPa ENE 3.2 km/h 6.4 km/h 88% 0.0 mm 0 W/m2
02:40 11.7 °C 9.8 °C 1008.5 hPa East 3.2 km/h 11.3 km/h 88% 0.0 mm 0 W/m2
02:45 11.6 °C 9.7 °C 1008.5 hPa Calm   6.4 km/h 88% 0.0 mm 0 W/m2
02:50 11.6 °C 9.7 °C 1008.5 hPa ENE 6.4 km/h 9.7 km/h 88% 0.0 mm 0 W/m2
02:56 11.6 °C 9.7 °C 1008.5 hPa ENE 3.2 km/h 6.4 km/h 88% 0.0 mm 0 W/m2
03:01 11.5 °C 9.6 °C 1008.1 hPa NE 4.7 km/h 9.7 km/h 88% 0.0 mm 0 W/m2
03:06 11.4 °C 9.5 °C 1008.5 hPa Calm   1.6 km/h 88% 0.0 mm 0 W/m2
03:11 11.1 °C 9.2 °C 1008.5 hPa Calm   4.8 km/h 88% 0.0 mm 0 W/m2
03:16 10.9 °C 9.2 °C 1008.1 hPa East 4.7 km/h 6.4 km/h 89% 0.0 mm 0 W/m2
03:21 10.8 °C 9.2 °C 1008.1 hPa NE 1.4 km/h 4.8 km/h 90% 0.0 mm 0 W/m2
03:26 10.9 °C 9.5 °C 1007.8 hPa East 4.7 km/h 6.4 km/h 91% 0.0 mm 0 W/m2
03:31 11.1 °C 9.7 °C 1007.8 hPa ENE 6.4 km/h 12.9 km/h 91% 0.0 mm 0 W/m2
03:36 11.3 °C 9.7 °C 1007.8 hPa NE 1.4 km/h 11.3 km/h 90% 0.0 mm 0 W/m2
03:41 11.4 °C 9.7 °C 1007.8 hPa NE 7.9 km/h 12.9 km/h 89% 0.0 mm 0 W/m2
03:46 11.4 °C 9.7 °C 1007.8 hPa ENE 4.7 km/h 6.4 km/h 89% 0.0 mm 0 W/m2
03:51 11.3 °C 9.6 °C 1007.5 hPa East 3.2 km/h 4.8 km/h 89% 0.0 mm 0 W/m2
03:56 11.3 °C 9.6 °C 1007.8 hPa ENE 3.2 km/h 4.8 km/h 89% 0.0 mm 0 W/m2
04:01 11.2 °C 9.5 °C 1007.5 hPa ENE 3.2 km/h 3.2 km/h 89% 0.0 mm 0 W/m2
04:06 11.1 °C 9.4 °C 1007.5 hPa NE 1.4 km/h 1.6 km/h 89% 0.0 mm 0 W/m2
04:11 10.9 °C 9.3 °C 1007.5 hPa East 1.4 km/h 6.4 km/h 90% 0.0 mm 0 W/m2
04:16 10.8 °C 9.2 °C 1007.5 hPa ENE 6.4 km/h 9.7 km/h 90% 0.0 mm 0 W/m2
04:21 10.9 °C 9.3 °C 1007.1 hPa East 1.4 km/h 4.8 km/h 90% 0.0 mm 0 W/m2
04:26 10.8 °C 9.2 °C 1007.1 hPa NE 1.4 km/h 9.7 km/h 90% 0.0 mm 0 W/m2
04:31 10.8 °C 9.2 °C 1006.8 hPa NE 3.2 km/h 4.8 km/h 90% 0.0 mm 0 W/m2
04:36 10.8 °C 9.2 °C 1006.8 hPa ENE 7.9 km/h 12.9 km/h 90% 0.0 mm 0 W/m2
04:41 10.8 °C 9.2 °C 1006.8 hPa NNE 4.7 km/h 9.7 km/h 90% 0.0 mm 0 W/m2
04:46 10.8 °C 9.2 °C 1006.8 hPa NE 1.4 km/h 12.9 km/h 90% 0.0 mm 0 W/m2
04:51 10.7 °C 9.1 °C 1006.8 hPa ENE 1.4 km/h 1.6 km/h 90% 0.0 mm 0 W/m2
04:56 10.6 °C 9 °C 1006.8 hPa North 1.4 km/h 4.8 km/h 90% 0.0 mm 0 W/m2
05:01 10.4 °C 8.8 °C 1006.8 hPa NNE 1.4 km/h 1.6 km/h 90% 0.0 mm 0 W/m2
05:06 10.4 °C 9 °C 1006.4 hPa ENE 6.4 km/h 14.5 km/h 91% 0.0 mm 0 W/m2
05:11 10.6 °C 9.2 °C 1006.4 hPa WNW 3.2 km/h 8 km/h 91% 0.0 mm 0 W/m2
05:16 10.6 °C 9.2 °C 1006.4 hPa Calm   14.5 km/h 91% 0.0 mm 0 W/m2
05:21 10.6 °C 9 °C 1006.4 hPa Calm   3.2 km/h 90% 0.0 mm 0 W/m2
05:26 10.4 °C 8.8 °C 1006.4 hPa Calm   4.8 km/h 90% 0.0 mm 0 W/m2
05:31 10.4 °C 9 °C 1006.4 hPa Calm   3.2 km/h 91% 0.0 mm 0 W/m2
05:36 10.3 °C 8.9 °C 1006.4 hPa Calm   3.2 km/h 91% 0.0 mm 0 W/m2
05:41 10.3 °C 8.9 °C 1006.4 hPa North 1.4 km/h 3.2 km/h 91% 0.0 mm 0 W/m2
05:46 10.2 °C 8.8 °C 1006.4 hPa Calm   3.2 km/h 91% 0.0 mm 0 W/m2
05:51 10.2 °C 8.8 °C 1006.4 hPa Calm     91% 0.0 mm 0 W/m2
05:56 10.1 °C 8.9 °C 1006.4 hPa Calm   3.2 km/h 92% 0.0 mm 0 W/m2
06:01 9.9 °C 8.7 °C 1006.4 hPa Calm   3.2 km/h 92% 0.0 mm 0 W/m2
06:06 9.8 °C 8.6 °C 1006.1 hPa Calm     92% 0.0 mm 0 W/m2
06:11 9.7 °C 8.5 °C 1006.4 hPa Calm   3.2 km/h 92% 0.0 mm 0 W/m2
06:16 9.7 °C 8.6 °C 1006.4 hPa Calm     93% 0.0 mm 0 W/m2
06:21 9.6 °C 8.5 °C 1006.4 hPa WNW 3.2 km/h 3.2 km/h 93% 0.0 mm 0 W/m2
06:26 9.6 °C 8.5 °C 1006.4 hPa Calm     93% 0.0 mm 0 W/m2
06:31 9.6 °C 8.7 °C 1006.4 hPa Calm     94% 0.0 mm 0 W/m2
06:36 9.5 °C 8.6 °C 1006.4 hPa Calm     94% 0.0 mm 0 W/m2
06:41 9.5 °C 8.6 °C 1006.4 hPa Calm   3.2 km/h 94% 0.0 mm 0 W/m2
06:46 9.4 °C 8.5 °C 1006.4 hPa Calm     94% 0.0 mm 0 W/m2
06:51 9.4 °C 8.5 °C 1006.4 hPa SSW 1.4 km/h 1.6 km/h 94% 0.0 mm 0 W/m2
06:56 9.3 °C 8.4 °C 1006.1 hPa ENE 1.4 km/h 4.8 km/h 94% 0.0 mm 0 W/m2
07:02 9.3 °C 8.4 °C 1006.4 hPa Calm     94% 0.0 mm 0 W/m2
07:07 9.3 °C 8.4 °C 1006.4 hPa Calm   3.2 km/h 94% 0.0 mm 0 W/m2
07:12 9.3 °C 8.5 °C 1006.1 hPa ENE 1.4 km/h 4.8 km/h 95% 0.0 mm 0 W/m2
07:17 9.4 °C 8.6 °C 1006.4 hPa Calm   1.6 km/h 95% 0.0 mm 0 W/m2
07:22 9.5 °C 8.7 °C 1006.1 hPa Calm   3.2 km/h 95% 0.0 mm 0 W/m2
07:27 9.6 °C 8.8 °C 1006.1 hPa Calm   1.6 km/h 95% 0.0 mm 5 W/m2
07:32 9.6 °C 8.8 °C 1006.1 hPa NE 1.4 km/h 3.2 km/h 95% 0.0 mm 9 W/m2
07:37 9.7 °C 8.9 °C 1006.1 hPa NE 4.7 km/h 4.8 km/h 95% 0.0 mm 11 W/m2
07:42 9.8 °C 9 °C 1006.1 hPa ENE 1.4 km/h 4.8 km/h 95% 0.0 mm 14 W/m2
07:47 10 °C 9.1 °C 1006.1 hPa ENE 3.2 km/h 4.8 km/h 94% 0.0 mm 19 W/m2
07:52 10.2 °C 9.3 °C 1006.1 hPa ENE 4.7 km/h 6.4 km/h 94% 0.0 mm 19 W/m2
07:57 10.3 °C 9.4 °C 1006.1 hPa ENE 3.2 km/h 4.8 km/h 94% 0.0 mm 21 W/m2
08:02 10.4 °C 9.3 °C 1005.8 hPa Calm   3.2 km/h 93% 0.0 mm 26 W/m2
08:07 10.5 °C 9.4 °C 1005.8 hPa ENE 3.2 km/h 4.8 km/h 93% 0.0 mm 26 W/m2
08:12 10.6 °C 9.5 °C 1006.1 hPa East 4.7 km/h 6.4 km/h 93% 0.0 mm 26 W/m2
08:17 10.8 °C 9.6 °C 1006.1 hPa East 1.4 km/h 4.8 km/h 92% 0.0 mm 39 W/m2
08:22 10.9 °C 9.7 °C 1006.1 hPa ENE 1.4 km/h 6.4 km/h 92% 0.0 mm 39 W/m2
08:27 11 °C 9.6 °C 1006.1 hPa Calm     91% 0.0 mm 26 W/m2
08:32 11.1 °C 9.7 °C 1006.1 hPa ENE 1.4 km/h 1.6 km/h 91% 0.0 mm 30 W/m2
08:37 11.2 °C 9.8 °C 1006.1 hPa Calm     91% 0.0 mm 32 W/m2
08:42 11.2 °C 9.8 °C 1006.1 hPa Calm   1.6 km/h 91% 0.0 mm 47 W/m2
08:47 11.4 °C 9.8 °C 1005.8 hPa NE 7.9 km/h 9.7 km/h 90% 0.0 mm 69 W/m2
08:52 11.6 °C 9.8 °C 1005.8 hPa East 1.4 km/h 4.8 km/h 89% 0.0 mm 104 W/m2
08:57 11.8 °C 10 °C 1005.8 hPa NE 6.4 km/h 6.4 km/h 89% 0.0 mm 97 W/m2
09:02 11.9 °C 10 °C 1005.8 hPa ENE 3.2 km/h 8 km/h 88% 0.0 mm 69 W/m2
09:07 12.2 °C 10.1 °C 1005.8 hPa ESE 3.2 km/h 6.4 km/h 87% 0.0 mm 84 W/m2
09:12 12.3 °C 10 °C 1005.4 hPa ENE 3.2 km/h 6.4 km/h 86% 0.0 mm 93 W/m2
09:17 12.4 °C 10.1 °C 1005.4 hPa East 3.2 km/h 4.8 km/h 86% 0.0 mm 127 W/m2
09:22 12.4 °C 10.1 °C 1005.4 hPa ENE 3.2 km/h 9.7 km/h 86% 0.0 mm 135 W/m2
09:27 12.5 °C 10.2 °C 1005.4 hPa NE 7.9 km/h 9.7 km/h 86% 0.0 mm 125 W/m2
09:32 12.6 °C 10.1 °C 1005.4 hPa NE 3.2 km/h 6.4 km/h 85% 0.0 mm 102 W/m2
09:37 12.6 °C 10.1 °C 1005.4 hPa East 6.4 km/h 9.7 km/h 85% 0.0 mm 113 W/m2
09:42 12.7 °C 10.2 °C 1005.4 hPa ENE 4.7 km/h 6.4 km/h 85% 0.0 mm 113 W/m2
09:47 12.7 °C 10.2 °C 1005.4 hPa SE 4.7 km/h 8 km/h 85% 0.0 mm 104 W/m2
09:52 12.7 °C 10.2 °C 1005.1 hPa NE 3.2 km/h 8 km/h 85% 0.0 mm 93 W/m2
09:57 12.8 °C 10.2 °C 1005.1 hPa NE 3.2 km/h 6.4 km/h 84% 0.0 mm 121 W/m2
10:02 12.9 °C 10.3 °C 1005.1 hPa NE 4.7 km/h 6.4 km/h 84% 0.0 mm 135 W/m2
10:07 13 °C 10.4 °C 1005.1 hPa NE 4.7 km/h 8 km/h 84% 0.0 mm 132 W/m2
10:12 13.1 °C 10.3 °C 1005.1 hPa NE 4.7 km/h 6.4 km/h 83% 0.0 mm 116 W/m2
10:17 13.1 °C 10.1 °C 1005.1 hPa NNE 3.2 km/h 6.4 km/h 82% 0.0 mm 107 W/m2
10:22 13.3 °C 10.3 °C 1005.4 hPa NE 4.7 km/h 6.4 km/h 82% 0.0 mm 105 W/m2
10:27 13.4 °C 10 °C 1005.4 hPa North 3.2 km/h 6.4 km/h 80% 0.0 mm 135 W/m2
10:32 13.6 °C 10.2 °C 1005.4 hPa ENE 1.4 km/h 4.8 km/h 80% 0.0 mm 77 W/m2
10:43 13.9 °C 9.7 °C 1005.4 hPa Calm   3.2 km/h 76% 0.0 mm 46 W/m2
10:48 14 °C 9.8 °C 1005.4 hPa North 4.7 km/h 6.4 km/h 76% 0.0 mm 40 W/m2
10:53 14 °C 9.8 °C 1005.4 hPa Calm   6.4 km/h 76% 0.0 mm 35 W/m2
10:58 14 °C 9.8 °C 1005.4 hPa NW 1.4 km/h 4.8 km/h 76% 0.0 mm 37 W/m2
11:03 14 °C 9.8 °C 1005.1 hPa NW 1.4 km/h 9.7 km/h 76% 0.0 mm 35 W/m2
11:08 13.9 °C 9.9 °C 1005.4 hPa WNW 1.4 km/h 4.8 km/h 77% 0.0 mm 46 W/m2
11:13 13.8 °C 10 °C 1005.1 hPa Calm   6.4 km/h 78% 0.0 mm 53 W/m2
11:18 13.7 °C 10.1 °C 1005.4 hPa North 1.4 km/h 6.4 km/h 79% 0.0 mm 74 W/m2
11:23 13.6 °C 10.4 °C 1005.4 hPa NE 3.2 km/h 4.8 km/h 81% 0.0 mm 69 W/m2
11:28 13.4 °C 10.4 °C 1005.1 hPa Calm   6.4 km/h 82% 0.0 mm 62 W/m2
11:33 13.3 °C 10.3 °C 1005.1 hPa Calm   6.4 km/h 82% 0.2 mm 65 W/m2
11:38 13.3 °C 10.5 °C 1005.1 hPa ENE 1.4 km/h 4.8 km/h 83% 0.2 mm 76 W/m2
11:43 13.2 °C 10.6 °C 1005.4 hPa Calm   6.4 km/h 84% 0.2 mm 120 W/m2
11:48 13.1 °C 10.6 °C 1005.1 hPa ENE 6.4 km/h 6.4 km/h 85% 0.2 mm 162 W/m2
11:53 13.1 °C 10.6 °C 1005.1 hPa Calm   9.7 km/h 85% 0.2 mm 127 W/m2
11:58 13.1 °C 10.6 °C 1005.1 hPa WNW 3.2 km/h 6.4 km/h 85% 0.2 mm 86 W/m2
12:03 13.2 °C 10.7 °C 1005.1 hPa ENE 1.4 km/h 9.7 km/h 85% 0.2 mm 121 W/m2
12:08 13.2 °C 10.7 °C 1004.7 hPa NE 3.2 km/h 8 km/h 85% 0.2 mm 127 W/m2
12:13 13.3 °C 10.8 °C 1005.1 hPa ENE 3.2 km/h 4.8 km/h 85% 0.2 mm 98 W/m2
12:18 13.3 °C 10.8 °C 1004.7 hPa ENE 1.4 km/h 3.2 km/h 85% 0.2 mm 118 W/m2
12:24 13.3 °C 10.8 °C 1004.7 hPa East 1.4 km/h 6.4 km/h 85% 0.2 mm 128 W/m2
12:29 13.3 °C 10.7 °C 1004.7 hPa NNE 3.2 km/h 6.4 km/h 84% 0.2 mm 113 W/m2
12:34 13.4 °C 10.8 °C 1004.7 hPa NE 3.2 km/h 6.4 km/h 84% 0.0 mm 72 W/m2
12:39 13.4 °C 10.8 °C 1004.7 hPa North 3.2 km/h 3.2 km/h 84% 0.0 mm 76 W/m2
12:44 13.5 °C 10.8 °C 1004.7 hPa Calm   6.4 km/h 84% 0.0 mm 42 W/m2
12:49 13.4 °C 10.8 °C 1004.7 hPa NNW 1.4 km/h 4.8 km/h 84% 0.0 mm 30 W/m2
12:54 13.4 °C 10.8 °C 1004.7 hPa Calm   1.6 km/h 84% 0.0 mm 42 W/m2
12:59 13.4 °C 10.8 °C 1004.7 hPa Calm   3.2 km/h 84% 0.2 mm 42 W/m2
13:04 13.3 °C 10.8 °C 1004.7 hPa NNW 3.2 km/h 4.8 km/h 85% 0.2 mm 37 W/m2
13:09 13.3 °C 10.8 °C 1004.7 hPa NNW 6.4 km/h 6.4 km/h 85% 0.2 mm 47 W/m2
13:14 13.2 °C 10.9 °C 1004.7 hPa NNE 1.4 km/h 6.4 km/h 86% 0.2 mm 53 W/m2
13:19 13.1 °C 10.8 °C 1004.7 hPa NE 1.4 km/h 6.4 km/h 86% 0.2 mm 49 W/m2
13:24 13.1 °C 10.8 °C 1004.7 hPa NW 1.4 km/h 6.4 km/h 86% 0.5 mm 51 W/m2
13:29 13 °C 10.9 °C 1004.4 hPa NNW 3.2 km/h 12.9 km/h 87% 0.5 mm 62 W/m2
13:34 12.9 °C 10.8 °C 1004.4 hPa NNW 1.4 km/h 8 km/h 87% 0.5 mm 74 W/m2
13:39 12.9 °C 10.8 °C 1004.4 hPa NW 4.7 km/h 12.9 km/h 87% 0.5 mm 65 W/m2
13:44 12.9 °C 10.8 °C 1004.4 hPa NW 4.7 km/h 4.8 km/h 87% 0.5 mm 67 W/m2
13:49 12.9 °C 11 °C 1004.4 hPa NW 6.4 km/h 8 km/h 88% 0.5 mm 65 W/m2
13:54 12.8 °C 10.9 °C 1004.4 hPa NE 3.2 km/h 4.8 km/h 88% 0.5 mm 46 W/m2
13:59 12.8 °C 11 °C 1004.4 hPa Calm   3.2 km/h 89% 0.5 mm 44 W/m2
14:04 12.7 °C 10.9 °C 1004.4 hPa NNE 3.2 km/h 4.8 km/h 89% 0.5 mm 42 W/m2
14:09 12.7 °C 11.1 °C 1004.1 hPa NNE 1.4 km/h 3.2 km/h 90% 0.8 mm 47 W/m2
14:14 12.6 °C 11 °C 1004.1 hPa NNE 1.4 km/h 3.2 km/h 90% 1.0 mm 49 W/m2
14:19 12.5 °C 10.9 °C 1004.1 hPa NNW 1.4 km/h 3.2 km/h 90% 1.3 mm 54 W/m2
14:24 12.4 °C 11 °C 1004.1 hPa North 3.2 km/h 4.8 km/h 91% 1.3 mm 53 W/m2
14:29 12.4 °C 11 °C 1004.1 hPa North 1.4 km/h 3.2 km/h 91% 1.5 mm 49 W/m2
14:34 12.4 °C 11 °C 1004.1 hPa Calm   4.8 km/h 91% 1.5 mm 44 W/m2
14:39 12.3 °C 11 °C 1004.1 hPa Calm   4.8 km/h 92% 1.8 mm 47 W/m2
14:44 12.3 °C 11 °C 1004.1 hPa ENE 1.4 km/h 3.2 km/h 92% 1.8 mm 40 W/m2
14:49 12.3 °C 11 °C 1004.1 hPa ENE 4.7 km/h 6.4 km/h 92% 1.8 mm 26 W/m2
14:54 12.3 °C 11 °C 1004.1 hPa WNW 3.2 km/h 3.2 km/h 92% 2.0 mm 30 W/m2
14:59 12.2 °C 10.9 °C 1004.1 hPa WNW 1.4 km/h 3.2 km/h 92% 2.3 mm 32 W/m2
15:04 12.2 °C 11.1 °C 1004.1 hPa Calm   1.6 km/h 93% 2.0 mm 32 W/m2
15:09 12.1 °C 11 °C 1004.1 hPa NW 4.7 km/h 4.8 km/h 93% 2.0 mm 28 W/m2
15:14 12.1 °C 11 °C 1004.1 hPa West 1.4 km/h 3.2 km/h 93% 2.0 mm 23 W/m2
15:19 12.1 °C 11 °C 1004.1 hPa NNW 1.4 km/h 1.6 km/h 93% 1.8 mm 21 W/m2
15:24 12.1 °C 11 °C 1004.1 hPa North 1.4 km/h 6.4 km/h 93% 1.8 mm 25 W/m2
15:29 12.1 °C 11 °C 1004.4 hPa ENE 6.4 km/h 6.4 km/h 93% 1.5 mm 12 W/m2
15:34 12.1 °C 11 °C 1004.1 hPa Calm   6.4 km/h 93% 1.8 mm 28 W/m2
15:39 12.1 °C 11 °C 1003.7 hPa East 1.4 km/h 6.4 km/h 93% 2.3 mm 25 W/m2
15:44 12 °C 10.9 °C 1004.1 hPa NNW 3.2 km/h 3.2 km/h 93% 2.3 mm 11 W/m2
15:49 11.9 °C 10.8 °C 1004.1 hPa NW 3.2 km/h 8 km/h 93% 2.3 mm 12 W/m2
15:54 11.9 °C 10.8 °C 1004.1 hPa Calm   8 km/h 93% 2.3 mm 19 W/m2
16:00 11.9 °C 10.8 °C 1004.1 hPa East 1.4 km/h 3.2 km/h 93% 2.3 mm 23 W/m2
16:05 11.8 °C 10.7 °C 1004.1 hPa West 1.4 km/h 9.7 km/h 93% 2.3 mm 11 W/m2
16:10 11.8 °C 10.7 °C 1004.1 hPa North 1.4 km/h 4.8 km/h 93% 2.5 mm 11 W/m2
16:15 11.7 °C 10.6 °C 1004.1 hPa NE 1.4 km/h 9.7 km/h 93% 2.5 mm 7 W/m2
16:20 11.7 °C 10.4 °C 1004.1 hPa West 4.7 km/h 4.8 km/h 92% 2.8 mm 5 W/m2
16:25 11.6 °C 10.5 °C 1004.1 hPa NNW 4.7 km/h 4.8 km/h 93% 2.5 mm 0 W/m2
16:30 11.6 °C 10.5 °C 1004.4 hPa North 1.4 km/h 1.6 km/h 93% 2.8 mm 5 W/m2
16:35 11.5 °C 10.4 °C 1004.1 hPa West 1.4 km/h 3.2 km/h 93% 2.5 mm 0 W/m2
16:40 11.4 °C 10.3 °C 1004.1 hPa ENE 4.7 km/h 4.8 km/h 93% 2.3 mm 5 W/m2
16:45 11.4 °C 10.3 °C 1004.1 hPa NNW 1.4 km/h 3.2 km/h 93% 2.3 mm 5 W/m2
16:50 11.4 °C 10.3 °C 1004.1 hPa North 1.4 km/h 3.2 km/h 93% 2.3 mm 7 W/m2
16:55 11.3 °C 10.2 °C 1004.1 hPa Calm   6.4 km/h 93% 2.3 mm 5 W/m2
17:00 11.3 °C 10.2 °C 1004.1 hPa East 3.2 km/h 6.4 km/h 93% 2.3 mm 0 W/m2
17:05 11.3 °C 10.2 °C 1004.1 hPa North 3.2 km/h 6.4 km/h 93% 2.3 mm 5 W/m2
17:10 11.3 °C 10.2 °C 1003.7 hPa ENE 3.2 km/h 11.3 km/h 93% 2.3 mm 0 W/m2
17:15 11.2 °C 10.1 °C 1003.7 hPa Calm   8 km/h 93% 2.3 mm 0 W/m2
17:20 11.2 °C 10.1 °C 1003.7 hPa NE 1.4 km/h 11.3 km/h 93% 2.3 mm 0 W/m2
17:25 11.2 °C 10.1 °C 1003.7 hPa NE 3.2 km/h 6.4 km/h 93% 2.3 mm 0 W/m2
17:30 11.2 °C 10.1 °C 1003.4 hPa Calm   4.8 km/h 93% 2.3 mm 0 W/m2
17:35 11.2 °C 10.1 °C 1003.7 hPa North 3.2 km/h 6.4 km/h 93% 2.0 mm 0 W/m2
17:40 11.2 °C 10.1 °C 1003.7 hPa North 1.4 km/h 3.2 km/h 93% 1.8 mm 0 W/m2
17:45 11.2 °C 10.1 °C 1003.7 hPa NE 3.2 km/h 4.8 km/h 93% 1.5 mm 0 W/m2
17:50 11.2 °C 10.1 °C 1003.7 hPa ENE 3.2 km/h 9.7 km/h 93% 1.3 mm 0 W/m2
17:55 11.2 °C 9.9 °C 1003.4 hPa NE 7.9 km/h 14.5 km/h 92% 1.3 mm 0 W/m2
18:00 11.2 °C 9.9 °C 1003.7 hPa ENE 6.4 km/h 6.4 km/h 92% 1.0 mm 0 W/m2
18:05 11.2 °C 9.9 °C 1003.4 hPa NE 3.2 km/h 14.5 km/h 92% 0.8 mm 0 W/m2
18:10 11.2 °C 9.9 °C 1003.4 hPa North 1.4 km/h 9.7 km/h 92% 0.5 mm 0 W/m2
18:15 11.2 °C 9.9 °C 1003.7 hPa ENE 3.2 km/h 4.8 km/h 92% 0.5 mm 0 W/m2
18:20 11.2 °C 9.9 °C 1003.7 hPa NW 1.4 km/h 9.7 km/h 92% 0.5 mm 0 W/m2
18:25 11.2 °C 9.9 °C 1004.1 hPa North 3.2 km/h 4.8 km/h 92% 0.5 mm 0 W/m2
18:30 11.1 °C 9.8 °C 1003.7 hPa Calm   1.6 km/h 92% 0.5 mm 0 W/m2
18:35 11.1 °C 9.8 °C 1003.7 hPa Calm   3.2 km/h 92% 0.5 mm 0 W/m2
18:40 11.1 °C 9.8 °C 1004.1 hPa WNW 1.4 km/h 11.3 km/h 92% 0.5 mm 0 W/m2
18:45 11 °C 9.8 °C 1004.1 hPa Calm   3.2 km/h 92% 0.5 mm 0 W/m2
18:50 11 °C 9.8 °C 1004.1 hPa NNW 3.2 km/h 11.3 km/h 92% 0.5 mm 0 W/m2
18:55 10.9 °C 9.7 °C 1004.1 hPa Calm   3.2 km/h 92% 0.2 mm 0 W/m2
19:00 10.9 °C 9.7 °C 1004.1 hPa East 1.4 km/h 3.2 km/h 92% 0.2 mm 0 W/m2
19:05 10.9 °C 9.7 °C 1003.7 hPa NE 1.4 km/h 3.2 km/h 92% 0.2 mm 0 W/m2
19:10 10.9 °C 9.7 °C 1003.7 hPa NE 1.4 km/h 3.2 km/h 92% 0.5 mm 0 W/m2
19:15 10.8 °C 9.6 °C 1004.1 hPa NW 1.4 km/h 6.4 km/h 92% 0.5 mm 0 W/m2
19:20 10.8 °C 9.6 °C 1004.1 hPa NNW 1.4 km/h 3.2 km/h 92% 0.2 mm 0 W/m2
19:25 10.8 °C 9.6 °C 1003.7 hPa Calm   1.6 km/h 92% 0.2 mm 0 W/m2
19:30 10.8 °C 9.6 °C 1004.1 hPa North 1.4 km/h 3.2 km/h 92% 0.2 mm 0 W/m2
19:35 10.8 °C 9.6 °C 1003.7 hPa North 3.2 km/h 4.8 km/h 92% 0.2 mm 0 W/m2
19:40 10.8 °C 9.6 °C 1003.7 hPa NE 1.4 km/h 1.6 km/h 92% 0.2 mm 0 W/m2
19:45 10.7 °C 9.6 °C 1004.1 hPa WNW 3.2 km/h 6.4 km/h 93% 0.2 mm 0 W/m2
19:50 10.7 °C 9.6 °C 1003.7 hPa WNW 1.4 km/h 1.6 km/h 93% 0.2 mm 0 W/m2
19:55 10.6 °C 9.5 °C 1003.7 hPa NE 1.4 km/h 6.4 km/h 93% 0.2 mm 0 W/m2
20:00 10.6 °C 9.5 °C 1003.7 hPa NE 1.4 km/h 1.6 km/h 93% 0.2 mm 0 W/m2
20:05 10.4 °C 9.3 °C 1003.7 hPa Calm   3.2 km/h 93% 0.2 mm 0 W/m2
20:10 10.4 °C 9.3 °C 1003.4 hPa East 1.4 km/h 1.6 km/h 93% 0.0 mm 0 W/m2
20:15 10.3 °C 9.4 °C 1003.7 hPa Calm     94% 0.0 mm 0 W/m2
20:20 10.3 °C 9.4 °C 1003.7 hPa Calm   3.2 km/h 94% 0.0 mm 0 W/m2
20:25 10.2 °C 9.3 °C 1004.1 hPa Calm     94% 0.0 mm 0 W/m2
20:30 10.2 °C 9.3 °C 1003.7 hPa Calm     94% 0.0 mm 0 W/m2
20:35 10.2 °C 9.3 °C 1003.7 hPa Calm     94% 0.0 mm 0 W/m2
20:40 10.1 °C 9.2 °C 1003.4 hPa NE 1.4 km/h 6.4 km/h 94% 0.0 mm 0 W/m2
20:45 10.1 °C 9.2 °C 1003.4 hPa Calm   1.6 km/h 94% 0.0 mm 0 W/m2
20:50 10.1 °C 9.3 °C 1003.7 hPa NE 1.4 km/h 6.4 km/h 95% 0.0 mm 0 W/m2
20:55 10.1 °C 9.3 °C 1003.4 hPa ENE 3.2 km/h 6.4 km/h 95% 0.0 mm 0 W/m2
21:00 10.1 °C 9.3 °C 1003.4 hPa ENE 1.4 km/h 1.6 km/h 95% 0.0 mm 0 W/m2
21:05 10.1 °C 9.3 °C 1003.4 hPa Calm   6.4 km/h 95% 0.0 mm 0 W/m2
21:10 10.1 °C 9.3 °C 1003.0 hPa Calm   1.6 km/h 95% 0.0 mm 0 W/m2
21:15 10 °C 9.2 °C 1003.4 hPa Calm     95% 0.0 mm 0 W/m2
21:20 10 °C 9.2 °C 1003.0 hPa Calm     95% 0.0 mm 0 W/m2
21:25 9.9 °C 9.1 °C 1003.4 hPa Calm     95% 0.0 mm 0 W/m2
21:30 9.9 °C 9.1 °C 1003.7 hPa Calm     95% 0.0 mm 0 W/m2
21:35 9.9 °C 9.1 °C 1003.4 hPa Calm     95% 0.0 mm 0 W/m2
21:40 9.8 °C 9 °C 1003.4 hPa Calm     95% 0.0 mm 0 W/m2
21:45 9.8 °C 9 °C 1003.4 hPa Calm     95% 0.0 mm 0 W/m2
21:50 9.8 °C 9 °C 1003.4 hPa Calm     95% 0.0 mm 0 W/m2
21:55 9.7 °C 8.9 °C 1003.7 hPa ENE 1.4 km/h 1.6 km/h 95% 0.0 mm 0 W/m2
22:00 9.8 °C 9.2 °C 1003.7 hPa Calm   3.2 km/h 96% 0.0 mm 0 W/m2
22:05 9.8 °C 9.2 °C 1003.4 hPa Calm   3.2 km/h 96% 0.0 mm 0 W/m2
22:10 9.8 °C 9.2 °C 1003.4 hPa Calm     96% 0.0 mm 0 W/m2
22:15 9.8 °C 9.2 °C 1003.0 hPa ENE 1.4 km/h 3.2 km/h 96% 0.0 mm 0 W/m2
22:20 9.9 °C 9.3 °C 1003.0 hPa ENE 1.4 km/h 6.4 km/h 96% 0.0 mm 0 W/m2
22:25 9.9 °C 9.3 °C 1003.0 hPa NE 3.2 km/h 4.8 km/h 96% 0.0 mm 0 W/m2
22:30 10 °C 9.4 °C 1003.0 hPa NE 1.4 km/h 4.8 km/h 96% 0.0 mm 0 W/m2
22:35 10 °C 9.4 °C 1003.0 hPa Calm     96% 0.0 mm 0 W/m2
22:40 10 °C 9.4 °C 1003.0 hPa Calm   1.6 km/h 96% 0.0 mm 0 W/m2
22:45 10 °C 9.4 °C 1003.0 hPa NE 1.4 km/h 1.6 km/h 96% 0.0 mm 0 W/m2
22:50 10 °C 9.4 °C 1003.0 hPa Calm     96% 0.0 mm 0 W/m2
22:55 10 °C 9.4 °C 1003.4 hPa Calm     96% 0.0 mm 0 W/m2
23:00 10 °C 9.4 °C 1003.4 hPa Calm     96% 0.0 mm 0 W/m2
23:05 10 °C 9.4 °C 1003.0 hPa Calm   3.2 km/h 96% 0.0 mm 0 W/m2
23:10 9.9 °C 9.3 °C 1003.4 hPa NE 1.4 km/h 1.6 km/h 96% 0.0 mm 0 W/m2
23:15 9.9 °C 9.3 °C 1003.0 hPa Calm   3.2 km/h 96% 0.0 mm 0 W/m2
23:20 9.9 °C 9.3 °C 1003.0 hPa Calm     96% 0.0 mm 0 W/m2
23:25 9.9 °C 9.3 °C 1003.0 hPa Calm     96% 0.0 mm 0 W/m2
23:30 9.9 °C 9.3 °C 1003.0 hPa NE 1.4 km/h 4.8 km/h 96% 0.0 mm 0 W/m2
23:35 9.9 °C 9.3 °C 1003.0 hPa East 1.4 km/h 3.2 km/h 96% 0.0 mm 0 W/m2
23:40 9.9 °C 9.3 °C 1002.7 hPa East 1.4 km/h 1.6 km/h 96% 0.0 mm 0 W/m2
23:45 9.9 °C 9.3 °C 1003.0 hPa East 1.4 km/h 1.6 km/h 96% 0.0 mm 0 W/m2
23:50 9.9 °C 9.3 °C 1003.0 hPa Calm   1.6 km/h 96% 0.0 mm 0 W/m2
23:55 9.9 °C 9.3 °C 1002.7 hPa NE 1.4 km/h 3.2 km/h 96% 0.0 mm 0 W/m2
Juneau County Weather
Compliments of Weather Underground - 4 mb